EFRO Airport Information

Runway Information
Runway 03 Length 9849 ft width 197 ft
Elevation 633 ft Threshold ft Heading 37
Runway 21 Length 9849 ft Width 197 ft
Elevation 609 ft Threshold ft Heading 217
Airport Frequencies
Type APP Name APP Frequency 125.8 MHZ
Type ATIS Name ATIS Frequency 117.7 MHZ
Type GND Name GND Frequency 118.525 MHZ
Type PMSV Name PMSV METRO Frequency 125.1 MHZ
Type TWR Name TWR Frequency 118.7 MHZ
Airport Navaids
Type NDB Name Papa-Alfa Frequency 377 KHZ
Type VOR-DME Name Rovani Frequency 117700 KHZ
Type NDB Name Toramo Frequency 416 KHZ
Airport Weather Information & NOTAM
ADDS - METARS form results

(1038 UTC 07 February 2023)
Data provider http://aviationweather.gov/metar/data/
 
METAR text: EFRO 071020Z 22015KT 9999 SCT004 00/00 Q1013
Conditions at: EFRO (ROVANIEMI (CIV/M, FI) observed 1020 UTC 07 February 2023
Temperature: 0.0°C (32°F)
Dewpoint: 0.0°C (32°F) [RH = 100%]
Pressure (altimeter): 29.91 inches Hg (1013.0 mb)
Winds: from the SW (220 degrees) at 17 MPH (15 knots; 7.7 m/s)
Visibility: 6 or more miles (10+ km)
Ceiling: at least 12,000 feet AGL
Clouds: scattered clouds at 400 feet AGL
Weather: no significant weather observed at this time

METAR text: EFRO 070950Z 22013KT 9999 FEW004 SCT006 01/00 Q1013
Conditions at: EFRO (ROVANIEMI (CIV/M, FI) observed 0950 UTC 07 February 2023
Temperature: 1.0°C (34°F)
Dewpoint: 0.0°C (32°F) [RH = 93%]
Pressure (altimeter): 29.91 inches Hg (1013.0 mb)
Winds: from the SW (220 degrees) at 15 MPH (13 knots; 6.7 m/s)
Visibility: 6 or more miles (10+ km)
Ceiling: at least 12,000 feet AGL
Clouds: few clouds at 400 feet AGL
scattered clouds at 600 feet AGL
Weather: no significant weather observed at this time

Forecast for: AMD
Text: TAF AMD EFRO 071012Z 0710/0809 22015KT 9999 SCT005
Forecast period: 1000 UTC 07 February 2023 to 0900 UTC 08 February 2023
Forecast type: FROM: standard forecast or significant change
Winds: from the SW (220 degrees) at 17 MPH (15 knots; 7.7 m/s)
Visibility: 6 or more miles (10+ km)
Ceiling: at least 12,000 feet AGL
Clouds: scattered clouds at 500 feet AGL
Weather: no significant weather forecast for this period
Text: TEMPO 0710/0712 BKN004
Forecast period: 1000 to 1200 UTC 07 February 2023
Forecast type: TEMPORARY: The following changes expected for less than half the time period
Visibility: missing
Ceiling: 400 feet AGL
Clouds: broken clouds at 400 feet AGL
Weather: no significant weather forecast for this period